createdAt,value
2022-08-20T00:00:42.053Z,18.15
2022-08-20T00:03:14.250Z,18.02
2022-08-20T00:05:44.675Z,17.33
2022-08-20T00:08:11.462Z,18.95
2022-08-20T00:10:41.946Z,17.80
2022-08-20T00:13:11.407Z,18.23
2022-08-20T00:15:42.241Z,17.63
2022-08-20T00:18:09.747Z,16.13
2022-08-20T00:20:42.589Z,17.05
2022-08-20T00:23:10.697Z,17.73
2022-08-20T00:25:37.368Z,16.40
2022-08-20T00:28:06.899Z,14.98
2022-08-20T00:30:35.143Z,17.48
2022-08-20T00:33:06.573Z,15.95
2022-08-20T00:35:36.384Z,17.33
2022-08-20T00:38:04.274Z,17.67
2022-08-20T00:40:36.172Z,16.23
2022-08-20T00:43:06.434Z,10.07
2022-08-20T00:45:35.571Z,14.38
2022-08-20T00:48:02.233Z,16.13
2022-08-20T00:50:36.135Z,15.95
2022-08-20T00:53:07.624Z,13.45
2022-08-20T00:55:36.144Z,15.52
2022-08-20T00:58:09.007Z,15.18
2022-08-20T01:00:40.692Z,14.98
2022-08-20T01:03:09.822Z,16.45
2022-08-20T01:05:38.433Z,14.57
2022-08-20T01:08:05.099Z,15.25
2022-08-20T01:10:36.482Z,15.32
2022-08-20T01:13:11.121Z,14.80
2022-08-20T01:15:43.341Z,13.65
2022-08-20T01:18:15.943Z,14.20
2022-08-20T01:20:54.948Z,15.13
2022-08-20T01:23:31.241Z,15.20
2022-08-20T01:26:09.772Z,14.02
2022-08-20T01:28:58.890Z,14.23
2022-08-20T01:31:30.091Z,14.50
2022-08-20T01:33:59.102Z,13.80
2022-08-20T01:36:40.994Z,14.80
2022-08-20T01:39:14.084Z,13.35
2022-08-20T01:42:17.815Z,13.80
2022-08-20T01:44:47.059Z,13.00
2022-08-20T01:47:20.986Z,14.18
2022-08-20T01:49:51.943Z,13.88
2022-08-20T01:52:24.483Z,13.07
2022-08-20T01:54:52.273Z,14.05
2022-08-20T01:57:20.954Z,13.88
2022-08-20T01:59:50.525Z,13.18
2022-08-20T02:02:17.067Z,12.73
2022-08-20T02:04:43.731Z,12.88
2022-08-20T02:07:18.326Z,14.27
2022-08-20T02:09:45.189Z,14.85
2022-08-20T02:12:14.287Z,13.70
2022-08-20T02:14:47.120Z,14.07
2022-08-20T02:17:15.492Z,14.13
2022-08-20T02:19:45.854Z,13.00
2022-08-20T02:22:29.443Z,13.43
2022-08-20T02:24:56.329Z,12.98
2022-08-20T02:27:23.581Z,12.60
2022-08-20T02:29:51.952Z,12.82
2022-08-20T02:32:28.339Z,12.82
2022-08-20T02:35:03.241Z,13.00
2022-08-20T02:37:30.024Z,13.32
2022-08-20T02:39:56.602Z,14.27
2022-08-20T02:42:23.140Z,12.63
2022-08-20T02:44:49.650Z,13.10
2022-08-20T02:47:17.173Z,12.63
2022-08-20T02:49:43.816Z,12.90
2022-08-20T02:52:10.329Z,12.45
2022-08-20T02:54:37.012Z,12.38
2022-08-20T02:57:04.226Z,11.68
2022-08-20T02:59:31.187Z,13.02
2022-08-20T03:01:59.623Z,12.10
2022-08-20T03:04:31.063Z,12.95
2022-08-20T03:06:58.791Z,13.70
2022-08-20T03:09:25.368Z,13.70
2022-08-20T03:11:52.227Z,13.48
2022-08-20T03:14:18.779Z,12.18
2022-08-20T03:16:45.297Z,12.50
2022-08-20T03:19:13.318Z,12.73
2022-08-20T03:21:40.660Z,13.23
2022-08-20T03:24:07.609Z,12.88
2022-08-20T03:26:34.484Z,13.00
2022-08-20T03:29:01.028Z,13.20
2022-08-20T03:31:27.514Z,13.55
2022-08-20T03:33:54.061Z,13.40
2022-08-20T03:36:28.051Z,14.10
2022-08-20T03:39:00.545Z,13.65
2022-08-20T03:41:28.593Z,13.93
2022-08-20T03:43:55.213Z,14.60
2022-08-20T03:46:22.899Z,15.35
2022-08-20T03:48:59.857Z,15.25
2022-08-20T03:51:28.303Z,14.30
2022-08-20T03:53:54.782Z,13.95
2022-08-20T03:56:21.294Z,15.13
2022-08-20T03:58:47.797Z,14.60
2022-08-20T04:01:45.803Z,14.25
2022-08-20T04:04:01.158Z,15.40
2022-08-20T04:06:29.203Z,14.85
2022-08-20T04:08:56.607Z,16.70
2022-08-20T04:11:24.231Z,15.38
2022-08-20T04:13:50.847Z,15.77
2022-08-20T04:16:18.029Z,15.75
2022-08-20T04:19:01.828Z,15.77
2022-08-20T04:21:33.169Z,16.05
2022-08-20T04:24:02.197Z,14.82
2022-08-20T04:26:28.733Z,15.02
2022-08-20T04:28:55.824Z,14.05
2022-08-20T04:31:25.315Z,14.25
2022-08-20T04:33:52.534Z,15.48
2022-08-20T04:36:19.243Z,16.02
2022-08-20T04:38:49.839Z,16.02
2022-08-20T04:41:22.709Z,16.25
2022-08-20T04:43:51.722Z,14.30
2022-08-20T04:46:19.328Z,15.85
2022-08-20T04:48:48.620Z,16.60
2022-08-20T04:51:16.836Z,16.65
2022-08-20T04:53:45.151Z,16.58
2022-08-20T04:56:23.381Z,17.25
2022-08-20T04:58:51.295Z,15.95
2022-08-20T05:01:18.085Z,16.88
2022-08-20T05:03:45.941Z,17.20
2022-08-20T05:06:12.559Z,16.02
2022-08-20T05:08:39.598Z,17.08
2022-08-20T05:11:34.299Z,17.45
2022-08-20T05:13:55.809Z,16.77
2022-08-20T05:16:24.060Z,17.40
2022-08-20T05:18:52.744Z,16.83
2022-08-20T05:21:20.913Z,18.38
2022-08-20T05:23:47.516Z,17.58
2022-08-20T05:26:16.052Z,18.67
2022-08-20T05:28:51.392Z,16.30
2022-08-20T05:31:31.494Z,18.15
2022-08-20T05:34:12.333Z,17.57
2022-08-20T05:36:42.448Z,17.40
2022-08-20T05:39:10.357Z,20.08
2022-08-20T05:41:38.469Z,17.73
2022-08-20T05:44:09.844Z,17.85
2022-08-20T05:46:40.694Z,17.98
2022-08-20T05:49:13.646Z,18.60
2022-08-20T05:51:40.173Z,17.55
2022-08-20T05:54:07.466Z,18.17
2022-08-20T05:56:34.185Z,17.13
2022-08-20T05:59:04.524Z,17.13
2022-08-20T06:01:32.939Z,19.38
2022-08-20T06:04:18.608Z,18.23
2022-08-20T06:09:30.986Z,17.45
2022-08-20T06:12:06.092Z,16.42
2022-08-20T06:14:33.452Z,17.63
2022-08-20T06:17:13.244Z,17.55
2022-08-20T06:19:44.303Z,18.95
2022-08-20T06:22:19.748Z,17.10
2022-08-20T06:24:52.042Z,18.08
2022-08-20T06:27:18.889Z,17.85
2022-08-20T06:29:46.129Z,19.02
2022-08-20T06:32:13.062Z,19.23
2022-08-20T06:34:49.770Z,19.23
2022-08-20T06:37:31.095Z,19.75
2022-08-20T06:40:03.150Z,19.30
2022-08-20T06:42:29.836Z,18.73
2022-08-20T06:44:56.545Z,16.95
2022-08-20T06:47:23.690Z,19.98
2022-08-20T06:49:50.351Z,19.67
2022-08-20T06:52:17.807Z,19.23
2022-08-20T06:54:45.497Z,19.23
2022-08-20T06:57:12.888Z,20.00
2022-08-20T06:59:39.878Z,16.88
2022-08-20T07:02:06.751Z,20.23
2022-08-20T07:04:33.586Z,18.80
2022-08-20T07:07:00.244Z,20.00
2022-08-20T07:09:28.198Z,20.23
2022-08-20T07:11:54.746Z,19.23
2022-08-20T07:14:22.275Z,17.17
2022-08-20T07:16:49.525Z,17.70
2022-08-20T07:19:16.426Z,18.40
2022-08-20T07:21:43.026Z,16.15
2022-08-20T07:24:10.059Z,16.40
2022-08-20T07:26:36.802Z,18.80
2022-08-20T07:29:04.074Z,19.23
2022-08-20T07:31:49.158Z,21.20
2022-08-20T07:34:16.767Z,21.73
2022-08-20T07:36:43.956Z,23.63
2022-08-20T07:39:10.493Z,20.75
2022-08-20T07:41:37.642Z,20.38
2022-08-20T07:44:04.760Z,22.45
2022-08-20T07:46:31.850Z,21.65
2022-08-20T07:48:59.074Z,21.42
2022-08-20T07:51:25.658Z,21.95
2022-08-20T07:53:52.742Z,12.45
2022-08-20T07:56:24.229Z,18.75
2022-08-20T07:58:53.433Z,18.38
2022-08-20T08:01:25.860Z,15.00
2022-08-20T08:03:53.053Z,14.95
2022-08-20T08:06:29.009Z,16.08
2022-08-20T08:09:08.192Z,10.38
2022-08-20T08:11:38.277Z,11.35
2022-08-20T08:14:08.226Z,10.50
2022-08-20T08:16:36.436Z,10.40
2022-08-20T08:19:06.847Z,9.32
2022-08-20T08:21:33.406Z,9.88
2022-08-20T08:24:00.341Z,10.23
2022-08-20T08:26:28.854Z,8.45
2022-08-20T08:28:55.993Z,9.23
2022-08-20T08:31:22.488Z,9.05
2022-08-20T08:33:49.015Z,8.13
2022-08-20T08:36:16.310Z,7.75
2022-08-20T08:38:44.990Z,6.97
2022-08-20T08:41:18.714Z,12.98
2022-08-20T08:43:53.064Z,10.45
2022-08-20T08:46:25.993Z,11.20
2022-08-20T08:48:57.946Z,11.77
2022-08-20T08:51:41.809Z,10.35
2022-08-20T08:54:12.826Z,7.97
2022-08-20T08:56:40.142Z,9.73
2022-08-20T08:59:08.728Z,9.43
2022-08-20T09:01:54.652Z,10.35
2022-08-20T09:04:32.585Z,8.02
2022-08-20T09:07:01.758Z,8.80
2022-08-20T09:09:35.570Z,7.07
2022-08-20T09:12:22.729Z,8.50
2022-08-20T09:14:51.356Z,8.85
2022-08-20T09:17:21.671Z,10.30
2022-08-20T09:19:49.258Z,11.20
2022-08-20T09:22:19.046Z,9.80
2022-08-20T09:24:46.755Z,9.40
2022-08-20T09:27:13.477Z,9.70
2022-08-20T09:29:40.531Z,8.10
2022-08-20T09:32:10.263Z,8.63
2022-08-20T09:34:46.473Z,9.43
2022-08-20T09:37:14.602Z,8.75
2022-08-20T09:39:41.677Z,7.43
2022-08-20T09:42:10.803Z,6.88
2022-08-20T09:44:37.639Z,6.40
2022-08-20T09:47:04.481Z,7.10
2022-08-20T09:49:31.132Z,4.78
2022-08-20T09:51:59.646Z,5.65
2022-08-20T09:54:30.059Z,5.30
2022-08-20T09:57:06.642Z,11.68
2022-08-20T09:59:33.961Z,4.97
2022-08-20T10:02:00.573Z,7.45
2022-08-20T10:04:27.174Z,10.60
2022-08-20T10:06:54.048Z,9.05
2022-08-20T10:09:20.822Z,5.43
2022-08-20T10:11:47.283Z,7.93
2022-08-20T10:14:13.892Z,8.45
2022-08-20T10:16:40.567Z,8.18
2022-08-20T10:19:08.430Z,2.05
2022-08-20T10:21:38.672Z,12.90
2022-08-20T10:24:05.718Z,10.73
2022-08-20T10:26:32.187Z,9.38
2022-08-20T10:28:58.675Z,13.00
2022-08-20T10:31:25.212Z,25.65
2022-08-20T10:33:51.684Z,6.97
2022-08-20T10:36:18.354Z,20.27
2022-08-20T10:38:45.402Z,13.00
2022-08-20T10:41:12.032Z,9.90
2022-08-20T10:43:38.594Z,12.02
2022-08-20T10:46:05.376Z,15.60
2022-08-20T10:48:32.365Z,19.88
2022-08-20T10:50:59.007Z,17.15
2022-08-20T10:53:25.607Z,8.05
2022-08-20T10:55:57.774Z,16.08
2022-08-20T10:58:25.239Z,16.25
2022-08-20T11:00:52.803Z,12.23
2022-08-20T11:03:20.210Z,15.93
2022-08-20T11:05:47.354Z,16.00
2022-08-20T11:08:14.290Z,3.08
2022-08-20T11:10:42.128Z,12.50
